Terminal Aerodrome Forecast
Issued by NWS Portland, OR

Current Version | Previous Version | Text Only | Print | Product List | Glossary On
Versions: 1 2 3 4 5 6 7 8 9 10 11 12 13 14 15 16 17 18 19 20 21 22 23 24 25 26 27 28 29 30 31 32 33 34 35 36 37 38 39 40 41 42
000
FTUS46 KPQR 170302 AAA
TAFHIO
TAF AMD
KHIO 170302Z 1703/1724 VRB03KT 4SM BR OVC012
     FM171000 VRB03KT 2SM -RA BR SCT003 OVC007
     FM172100 21003KT 4SM -SHRA SCT007 OVC015=

USA.gov is the U.S. government's official web portal to all federal, state and local government web resources and services.